createdAt,value
2022-12-01T00:00:22.733Z,108.88
2022-12-01T00:02:49.326Z,106.55
2022-12-01T00:05:15.841Z,106.63
2022-12-01T00:07:42.305Z,114.55
2022-12-01T00:10:26.649Z,112.28
2022-12-01T00:12:54.203Z,104.97
2022-12-01T00:15:21.402Z,107.43
2022-12-01T00:17:48.875Z,105.65
2022-12-01T00:20:18.190Z,109.97
2022-12-01T00:22:46.352Z,114.07
2022-12-01T00:25:14.137Z,109.28
2022-12-01T00:27:41.094Z,102.43
2022-12-01T00:30:10.954Z,104.78
2022-12-01T00:32:37.812Z,115.85
2022-12-01T00:35:06.097Z,108.60
2022-12-01T00:37:34.202Z,112.68
2022-12-01T00:40:01.242Z,115.60
2022-12-01T00:42:28.026Z,114.50
2022-12-01T00:44:54.379Z,118.55
2022-12-01T00:47:21.043Z,112.60
2022-12-01T00:49:47.621Z,118.53
2022-12-01T00:52:15.722Z,113.50
2022-12-01T00:54:42.090Z,105.18
2022-12-01T00:57:09.019Z,113.15
2022-12-01T00:59:35.857Z,113.00
2022-12-01T01:02:08.333Z,112.65
2022-12-01T01:04:36.260Z,106.55
2022-12-01T01:07:02.799Z,110.28
2022-12-01T01:09:30.819Z,109.38
2022-12-01T01:11:57.213Z,109.07
2022-12-01T01:14:24.070Z,116.07
2022-12-01T01:16:50.582Z,113.93
2022-12-01T01:19:17.575Z,110.88
2022-12-01T01:21:43.963Z,114.22
2022-12-01T01:24:10.364Z,110.15
2022-12-01T01:26:37.754Z,117.82
2022-12-01T01:29:07.489Z,113.05
2022-12-01T01:31:34.930Z,121.55
2022-12-01T01:34:01.447Z,106.82
2022-12-01T01:36:28.075Z,109.30
2022-12-01T01:38:55.219Z,116.10
2022-12-01T01:41:23.463Z,119.53
2022-12-01T01:43:52.364Z,113.65
2022-12-01T01:46:21.620Z,107.88
2022-12-01T01:49:01.113Z,105.13
2022-12-01T01:51:33.592Z,104.78
2022-12-01T01:54:06.333Z,107.95
2022-12-01T01:56:34.168Z,102.15
2022-12-01T01:59:00.889Z,117.43
2022-12-01T02:01:27.309Z,106.38
2022-12-01T02:03:54.727Z,113.43
2022-12-01T02:06:23.474Z,111.38
2022-12-01T02:08:50.417Z,113.30
2022-12-01T02:11:16.764Z,104.75
2022-12-01T02:14:08.758Z,102.00
2022-12-01T02:17:00.024Z,99.07
2022-12-01T02:19:55.416Z,104.15
2022-12-01T02:22:50.775Z,98.78
2022-12-01T02:25:28.226Z,102.80
2022-12-01T02:27:57.634Z,106.93
2022-12-01T02:30:43.671Z,109.72
2022-12-01T02:33:23.893Z,107.78
2022-12-01T02:36:00.212Z,106.47
2022-12-01T02:38:40.076Z,115.25
2022-12-01T02:41:19.965Z,103.05
2022-12-01T02:44:21.227Z,119.75
2022-12-01T02:46:56.369Z,112.20
2022-12-01T02:49:35.290Z,109.72
2022-12-01T02:52:06.017Z,104.70
2022-12-01T02:54:33.617Z,110.20
2022-12-01T02:57:00.038Z,112.03
2022-12-01T02:59:26.593Z,107.57
2022-12-01T03:02:04.285Z,115.35
2022-12-01T03:04:42.961Z,118.38
2022-12-01T03:07:13.299Z,100.88
2022-12-01T03:10:17.201Z,119.93
2022-12-01T03:13:39.987Z,126.07
2022-12-01T03:16:28.733Z,114.68
2022-12-01T03:19:00.340Z,126.07
2022-12-01T03:24:05.241Z,123.82
2022-12-01T03:26:35.301Z,120.10
2022-12-01T03:29:08.181Z,127.70
2022-12-01T03:31:40.924Z,121.40
2022-12-01T03:34:24.054Z,136.15
2022-12-01T03:36:56.510Z,135.38
2022-12-01T03:39:29.419Z,122.82
2022-12-01T03:42:00.790Z,114.35
2022-12-01T03:44:35.333Z,124.15
2022-12-01T03:47:09.969Z,118.00
2022-12-01T03:49:37.599Z,116.82
2022-12-01T03:52:03.941Z,109.57
2022-12-01T03:54:52.084Z,111.88
2022-12-01T03:57:26.222Z,103.78
2022-12-01T03:59:54.058Z,120.53
2022-12-01T04:02:20.861Z,120.43
2022-12-01T04:04:47.395Z,124.30
2022-12-01T04:07:14.765Z,118.55
2022-12-01T04:09:41.833Z,114.60
2022-12-01T04:12:32.676Z,119.95
2022-12-01T04:15:06.088Z,113.73
2022-12-01T04:17:32.562Z,108.60
2022-12-01T04:19:58.987Z,109.90
2022-12-01T04:22:25.751Z,125.47
2022-12-01T04:24:52.934Z,124.05
2022-12-01T04:27:20.098Z,118.57
2022-12-01T04:29:46.700Z,130.10
2022-12-01T04:32:13.698Z,139.48
2022-12-01T04:34:40.140Z,140.23
2022-12-01T04:37:07.321Z,125.00
2022-12-01T04:39:34.659Z,120.93
2022-12-01T04:42:01.092Z,134.40
2022-12-01T04:44:34.327Z,132.00
2022-12-01T04:47:01.449Z,124.70
2022-12-01T04:49:28.346Z,128.27
2022-12-01T04:51:54.817Z,131.25
2022-12-01T04:54:21.231Z,127.97
2022-12-01T04:56:48.200Z,130.65
2022-12-01T04:59:14.647Z,126.60
2022-12-01T05:01:41.184Z,117.38
2022-12-01T05:04:07.870Z,131.20
2022-12-01T05:06:34.322Z,127.88
2022-12-01T05:09:02.068Z,121.80
2022-12-01T05:11:29.916Z,132.27
2022-12-01T05:13:56.382Z,139.10
2022-12-01T05:16:25.366Z,149.48
2022-12-01T05:19:16.593Z,143.68
2022-12-01T05:21:44.835Z,147.60
2022-12-01T05:24:12.672Z,133.93
2022-12-01T05:26:39.587Z,147.77
2022-12-01T05:29:06.377Z,148.52
2022-12-01T05:31:33.148Z,147.38
2022-12-01T05:33:59.780Z,150.30
2022-12-01T05:36:27.048Z,155.57
2022-12-01T05:38:54.519Z,154.65
2022-12-01T05:41:21.452Z,151.43
2022-12-01T05:43:48.032Z,136.18
2022-12-01T05:46:14.441Z,146.32
2022-12-01T05:48:40.906Z,137.10
2022-12-01T05:51:09.594Z,127.30
2022-12-01T05:53:35.986Z,133.75
2022-12-01T05:56:02.470Z,128.18
2022-12-01T05:58:28.857Z,135.32
2022-12-01T06:00:55.259Z,130.25
2022-12-01T06:03:21.754Z,137.77
2022-12-01T06:05:48.187Z,120.22
2022-12-01T06:08:14.591Z,131.63
2022-12-01T06:10:41.194Z,120.13
2022-12-01T06:13:07.602Z,122.20
2022-12-01T06:15:34.007Z,123.43
2022-12-01T06:18:00.422Z,119.95
2022-12-01T06:20:27.073Z,127.80
2022-12-01T06:22:53.610Z,133.63
2022-12-01T06:25:20.035Z,133.60
2022-12-01T06:27:46.983Z,134.45
2022-12-01T06:30:13.605Z,135.35
2022-12-01T06:32:40.191Z,133.45
2022-12-01T06:35:07.121Z,139.25
2022-12-01T06:37:33.591Z,124.90
2022-12-01T06:40:00.021Z,134.60
2022-12-01T06:42:30.100Z,133.50
2022-12-01T06:44:56.487Z,132.88
2022-12-01T06:47:22.931Z,136.93
2022-12-01T06:49:49.561Z,135.27
2022-12-01T06:52:16.063Z,134.43
2022-12-01T06:54:42.415Z,129.10
2022-12-01T06:57:08.958Z,133.65
2022-12-01T06:59:35.751Z,137.15
2022-12-01T07:02:03.102Z,125.88
2022-12-01T07:04:30.229Z,145.95
2022-12-01T07:06:56.633Z,137.85
2022-12-01T07:09:23.044Z,139.43
2022-12-01T07:11:49.568Z,141.10
2022-12-01T07:14:24.836Z,135.02
2022-12-01T07:16:51.311Z,147.07
2022-12-01T07:19:17.996Z,141.80
2022-12-01T07:21:44.515Z,131.60
2022-12-01T07:24:12.534Z,128.43
2022-12-01T07:26:40.132Z,126.78
2022-12-01T07:29:07.076Z,129.32
2022-12-01T07:31:33.497Z,129.15
2022-12-01T07:33:59.933Z,135.52
2022-12-01T07:36:26.542Z,129.07
2022-12-01T07:38:53.049Z,131.23
2022-12-01T07:41:20.085Z,115.93
2022-12-01T07:43:47.997Z,120.13
2022-12-01T07:46:22.702Z,114.57
2022-12-01T07:48:49.921Z,124.85
2022-12-01T07:51:17.317Z,122.70
2022-12-01T07:53:45.369Z,122.40
2022-12-01T07:56:12.506Z,122.95
2022-12-01T07:58:39.254Z,122.38
2022-12-01T08:01:11.708Z,135.48
2022-12-01T08:03:38.683Z,124.00
2022-12-01T08:06:06.255Z,128.85
2022-12-01T08:08:34.394Z,130.07
2022-12-01T08:11:07.762Z,128.05
2022-12-01T08:13:34.208Z,129.02
2022-12-01T08:16:04.957Z,142.05
2022-12-01T08:18:33.607Z,139.23
2022-12-01T08:21:00.099Z,136.63
2022-12-01T08:23:26.495Z,144.23
2022-12-01T08:25:52.912Z,149.30
2022-12-01T08:28:19.840Z,158.13
2022-12-01T08:30:46.592Z,144.27
2022-12-01T08:33:13.207Z,169.70
2022-12-01T08:35:39.610Z,163.98
2022-12-01T08:38:06.017Z,162.98
2022-12-01T08:40:32.496Z,159.05
2022-12-01T08:42:59.031Z,160.27
2022-12-01T08:45:25.480Z,157.75
2022-12-01T08:47:54.840Z,165.45
2022-12-01T08:50:21.241Z,164.45
2022-12-01T08:52:47.721Z,165.93
2022-12-01T08:55:14.197Z,158.65
2022-12-01T08:57:40.629Z,163.25
2022-12-01T09:00:07.696Z,167.70
2022-12-01T09:02:34.644Z,161.30
2022-12-01T09:05:01.148Z,168.57
2022-12-01T09:07:27.722Z,156.10
2022-12-01T09:09:54.220Z,154.38
2022-12-01T09:12:20.668Z,166.60
2022-12-01T09:14:49.433Z,165.57
2022-12-01T09:17:17.208Z,172.65
2022-12-01T09:19:44.217Z,169.98
2022-12-01T09:22:11.733Z,172.30
2022-12-01T09:24:38.397Z,159.65
2022-12-01T09:27:05.712Z,167.15
2022-12-01T09:29:32.509Z,163.32
2022-12-01T09:31:59.775Z,171.27
2022-12-01T09:34:26.753Z,171.40
2022-12-01T09:36:56.468Z,153.45
2022-12-01T09:39:23.128Z,165.45
2022-12-01T09:42:08.717Z,174.13
2022-12-01T09:44:43.764Z,170.95
2022-12-01T09:47:22.186Z,177.18
2022-12-01T09:50:11.983Z,206.50
2022-12-01T09:52:47.791Z,227.20
2022-12-01T09:55:16.814Z,191.82
2022-12-01T09:57:46.721Z,176.15
2022-12-01T10:00:21.872Z,160.82
2022-12-01T10:02:54.217Z,171.70
2022-12-01T10:05:23.755Z,166.50
2022-12-01T10:08:00.398Z,172.18
2022-12-01T10:10:42.879Z,173.27
2022-12-01T10:13:18.837Z,166.85
2022-12-01T10:15:47.998Z,159.10
2022-12-01T10:18:26.006Z,154.30
2022-12-01T10:21:12.857Z,160.70
2022-12-01T10:24:00.519Z,149.63
2022-12-01T10:26:34.920Z,145.40
2022-12-01T10:29:12.163Z,133.73
2022-12-01T10:32:05.103Z,144.10
2022-12-01T10:34:38.518Z,147.52
2022-12-01T10:37:06.558Z,151.95
2022-12-01T10:39:43.484Z,141.77
2022-12-01T10:42:19.031Z,145.13
2022-12-01T10:44:45.719Z,150.23
2022-12-01T10:47:19.439Z,147.80
2022-12-01T10:49:45.873Z,152.30
2022-12-01T10:52:49.057Z,149.73
2022-12-01T10:55:27.635Z,151.02
2022-12-01T10:57:56.827Z,155.95
2022-12-01T11:03:30.233Z,153.80
2022-12-01T11:05:59.676Z,155.98
2022-12-01T11:08:50.654Z,153.50
2022-12-01T11:11:25.978Z,141.55
2022-12-01T11:13:53.793Z,130.63
2022-12-01T11:16:37.677Z,141.52
2022-12-01T11:19:32.437Z,139.15
2022-12-01T11:22:01.356Z,136.60
2022-12-01T11:24:27.701Z,131.18
2022-12-01T11:26:56.824Z,137.90
2022-12-01T11:29:36.140Z,130.70
2022-12-01T11:32:17.644Z,124.40
2022-12-01T11:34:50.827Z,127.57
2022-12-01T11:37:20.028Z,127.25
2022-12-01T11:39:48.616Z,113.63
2022-12-01T11:42:34.366Z,118.25
2022-12-01T11:45:20.391Z,118.43
2022-12-01T11:48:18.625Z,123.85
2022-12-01T11:51:01.376Z,123.32
2022-12-01T11:53:34.034Z,119.55
2022-12-01T11:56:25.093Z,123.57
2022-12-01T11:59:01.350Z,134.63
2022-12-01T12:02:03.046Z,135.32
2022-12-01T12:04:38.911Z,122.15
2022-12-01T12:07:11.305Z,115.50
2022-12-01T12:09:45.362Z,126.07
2022-12-01T12:12:44.080Z,137.77
2022-12-01T12:15:16.256Z,122.43
2022-12-01T12:17:48.962Z,115.15
2022-12-01T12:21:04.179Z,121.55
2022-12-01T12:23:55.506Z,116.68
2022-12-01T12:26:24.591Z,122.40
2022-12-01T12:28:56.772Z,107.20
2022-12-01T12:31:33.452Z,106.60
2022-12-01T12:34:28.891Z,112.65
2022-12-01T12:37:10.873Z,117.95
2022-12-01T12:39:58.894Z,116.22
2022-12-01T12:42:48.101Z,112.07
2022-12-01T12:45:42.524Z,117.82
2022-12-01T12:48:16.413Z,119.47
2022-12-01T12:51:04.216Z,113.28
2022-12-01T12:53:39.084Z,106.32
2022-12-01T12:56:10.698Z,115.20
2022-12-01T13:01:32.188Z,106.20
2022-12-01T13:04:21.843Z,100.35
2022-12-01T13:07:03.523Z,102.10
2022-12-01T13:12:20.892Z,105.80
2022-12-01T13:14:55.187Z,95.38
2022-12-01T13:17:37.120Z,97.43
2022-12-01T13:20:05.610Z,98.38
2022-12-01T13:22:35.113Z,96.60
2022-12-01T13:25:03.763Z,98.35
2022-12-01T13:27:35.099Z,86.30
2022-12-01T13:30:01.739Z,88.65
2022-12-01T13:32:38.385Z,91.43
2022-12-01T13:35:20.678Z,84.25
2022-12-01T13:37:47.475Z,94.57
2022-12-01T13:40:23.236Z,100.10
2022-12-01T13:43:22.985Z,99.30
2022-12-01T13:45:50.161Z,93.75
2022-12-01T13:48:49.825Z,94.75
2022-12-01T13:51:16.594Z,94.28
2022-12-01T13:53:55.280Z,91.32
2022-12-01T13:56:24.627Z,91.65
2022-12-01T13:58:54.004Z,89.18
2022-12-01T14:01:20.774Z,88.40
2022-12-01T14:04:02.637Z,91.85
2022-12-01T14:09:35.492Z,89.32
2022-12-01T14:12:01.871Z,84.72
2022-12-01T14:14:36.165Z,92.72
2022-12-01T14:17:03.519Z,94.22
2022-12-01T14:19:51.987Z,97.22
2022-12-01T14:22:36.897Z,92.30
2022-12-01T14:25:08.005Z,88.32
2022-12-01T14:27:40.735Z,88.15
2022-12-01T14:30:41.168Z,85.53
2022-12-01T14:33:48.613Z,91.18
2022-12-01T14:36:38.188Z,92.88
2022-12-01T14:39:22.991Z,89.93
2022-12-01T14:41:58.330Z,93.68
2022-12-01T14:44:30.562Z,91.28
2022-12-01T14:46:59.910Z,94.82
2022-12-01T14:49:32.349Z,94.70
2022-12-01T14:52:04.268Z,88.57
2022-12-01T14:54:39.059Z,94.90
2022-12-01T14:57:10.047Z,89.82
2022-12-01T14:59:40.234Z,91.93
2022-12-01T15:02:09.797Z,99.70
2022-12-01T15:05:12.492Z,92.72
2022-12-01T15:07:50.672Z,92.28
2022-12-01T15:10:35.274Z,89.65
2022-12-01T15:13:21.842Z,84.40
2022-12-01T15:15:54.081Z,84.70
2022-12-01T15:18:28.235Z,96.10
2022-12-01T15:21:07.193Z,91.15
2022-12-01T15:23:33.909Z,88.38
2022-12-01T15:26:00.595Z,97.22
2022-12-01T15:28:35.529Z,91.40
2022-12-01T15:31:11.200Z,98.07
2022-12-01T15:33:46.273Z,92.88
2022-12-01T15:36:13.736Z,89.55
2022-12-01T15:38:45.120Z,94.18
2022-12-01T15:41:29.071Z,90.35
2022-12-01T15:43:58.892Z,89.15
2022-12-01T15:46:30.519Z,93.22
2022-12-01T15:49:33.684Z,90.47
2022-12-01T15:52:06.618Z,91.75
2022-12-01T15:54:33.581Z,92.60
2022-12-01T15:57:00.707Z,97.93
2022-12-01T15:59:55.196Z,94.78
2022-12-01T16:02:24.543Z,96.65
2022-12-01T16:05:20.379Z,86.47
2022-12-01T16:08:12.662Z,88.60
2022-12-01T16:10:36.667Z,88.43
2022-12-01T16:13:40.676Z,78.10
2022-12-01T16:16:39.132Z,91.88
2022-12-01T16:19:30.135Z,93.40
2022-12-01T16:22:12.656Z,69.35
2022-12-01T16:24:53.517Z,80.18
2022-12-01T16:27:24.602Z,84.13
2022-12-01T16:29:54.163Z,87.78
2022-12-01T16:32:33.728Z,86.95
2022-12-01T16:35:00.471Z,92.30
2022-12-01T16:37:27.724Z,93.93
2022-12-01T16:39:54.357Z,80.57
2022-12-01T16:42:21.708Z,86.57
2022-12-01T16:44:50.067Z,81.15
2022-12-01T16:47:23.150Z,79.75
2022-12-01T16:49:50.521Z,87.32
2022-12-01T16:55:04.406Z,83.78
2022-12-01T16:57:30.846Z,89.40
2022-12-01T16:59:57.264Z,79.80
2022-12-01T17:02:23.705Z,85.47
2022-12-01T17:04:50.413Z,88.85
2022-12-01T17:07:17.237Z,87.03
2022-12-01T17:09:43.682Z,86.85
2022-12-01T17:12:10.110Z,89.95
2022-12-01T17:14:36.537Z,85.68
2022-12-01T17:17:03.068Z,88.10
2022-12-01T17:19:29.470Z,84.75
2022-12-01T17:21:56.856Z,92.10
2022-12-01T17:24:23.293Z,93.03
2022-12-01T17:26:49.679Z,88.30
2022-12-01T17:29:16.042Z,89.85
2022-12-01T17:31:42.501Z,83.43
2022-12-01T17:34:08.983Z,89.43
2022-12-01T17:36:35.365Z,90.47
2022-12-01T17:39:01.809Z,90.93
2022-12-01T17:41:32.356Z,92.82
2022-12-01T17:44:01.382Z,93.00
2022-12-01T17:46:27.930Z,96.45
2022-12-01T17:48:54.342Z,89.25
2022-12-01T17:51:20.700Z,93.80
2022-12-01T17:53:47.481Z,90.97
2022-12-01T17:56:16.300Z,91.28
2022-12-01T17:58:42.782Z,92.68
2022-12-01T18:01:17.299Z,96.13
2022-12-01T18:03:44.426Z,94.07
2022-12-01T18:06:11.737Z,86.93
2022-12-01T18:08:38.777Z,89.18
2022-12-01T18:11:07.916Z,100.10
2022-12-01T18:13:46.385Z,90.05
2022-12-01T18:16:16.096Z,94.63
2022-12-01T18:18:42.906Z,94.78
2022-12-01T18:21:12.331Z,90.57
2022-12-01T18:23:38.857Z,88.63
2022-12-01T18:26:12.169Z,87.32
2022-12-01T18:28:41.830Z,87.65
2022-12-01T18:31:11.074Z,93.38
2022-12-01T18:33:40.333Z,88.93
2022-12-01T18:36:13.080Z,93.70
2022-12-01T18:38:40.558Z,87.65
2022-12-01T18:41:07.081Z,88.60
2022-12-01T18:43:33.726Z,85.70
2022-12-01T18:46:00.444Z,85.20
2022-12-01T18:48:26.967Z,85.05
2022-12-01T18:50:59.137Z,85.03
2022-12-01T18:53:25.904Z,86.60
2022-12-01T18:55:52.331Z,91.25
2022-12-01T18:58:18.796Z,88.82
2022-12-01T19:00:45.691Z,80.88
2022-12-01T19:03:12.174Z,92.38
2022-12-01T19:05:39.432Z,84.07
2022-12-01T19:08:06.685Z,89.00
2022-12-01T19:10:33.267Z,87.03
2022-12-01T19:12:59.672Z,91.40
2022-12-01T19:15:26.086Z,96.18
2022-12-01T19:17:52.470Z,100.43
2022-12-01T19:20:18.954Z,93.90
2022-12-01T19:22:45.493Z,98.13
2022-12-01T19:25:13.520Z,94.05
2022-12-01T19:27:40.724Z,87.53
2022-12-01T19:30:07.778Z,88.55
2022-12-01T19:32:34.448Z,88.40
2022-12-01T19:35:00.871Z,83.38
2022-12-01T19:37:27.590Z,85.70
2022-12-01T19:39:54.008Z,82.93
2022-12-01T19:42:20.441Z,80.82
2022-12-01T19:44:46.955Z,80.38
2022-12-01T19:47:17.683Z,82.15
2022-12-01T19:49:47.035Z,84.68
2022-12-01T19:52:13.410Z,80.35
2022-12-01T19:54:39.966Z,90.72
2022-12-01T19:57:06.493Z,82.82
2022-12-01T19:59:32.946Z,91.60
2022-12-01T20:01:59.483Z,90.70
2022-12-01T20:04:26.028Z,83.90
2022-12-01T20:06:52.505Z,89.20
2022-12-01T20:09:18.892Z,91.47
2022-12-01T20:11:45.554Z,82.38
2022-12-01T20:14:12.350Z,81.20
2022-12-01T20:16:39.205Z,90.82
2022-12-01T20:19:06.386Z,88.00
2022-12-01T20:21:35.880Z,84.72
2022-12-01T20:24:05.344Z,84.88
2022-12-01T20:26:37.457Z,86.22
2022-12-01T20:29:16.507Z,85.63
2022-12-01T20:31:43.454Z,83.35
2022-12-01T20:34:16.161Z,77.90
2022-12-01T20:36:43.145Z,83.50
2022-12-01T20:39:11.566Z,83.72
2022-12-01T20:41:39.369Z,84.38
2022-12-01T20:44:07.834Z,85.47
2022-12-01T20:46:35.464Z,83.13
2022-12-01T20:49:02.262Z,84.20
2022-12-01T20:51:32.985Z,83.68
2022-12-01T20:54:27.859Z,79.97
2022-12-01T20:56:50.906Z,77.32
2022-12-01T20:59:17.388Z,79.90
2022-12-01T21:01:43.870Z,79.75
2022-12-01T21:04:10.336Z,80.57
2022-12-01T21:06:36.791Z,87.65
2022-12-01T21:09:04.611Z,79.85
2022-12-01T21:11:55.157Z,75.10
2022-12-01T21:14:56.432Z,76.75
2022-12-01T21:17:37.503Z,80.75
2022-12-01T21:20:21.216Z,77.70
2022-12-01T21:22:50.027Z,76.60
2022-12-01T21:25:19.436Z,78.60
2022-12-01T21:27:47.274Z,78.78
2022-12-01T21:30:22.453Z,74.40
2022-12-01T21:32:49.685Z,86.00
2022-12-01T21:35:19.264Z,76.90
2022-12-01T21:37:46.806Z,74.45
2022-12-01T21:40:24.251Z,78.32
2022-12-01T21:42:51.465Z,76.13
2022-12-01T21:45:31.817Z,78.93
2022-12-01T21:48:06.314Z,72.57
2022-12-01T21:50:32.791Z,70.57
2022-12-01T21:52:59.256Z,71.82
2022-12-01T21:55:26.032Z,77.88
2022-12-01T21:57:54.059Z,76.25
2022-12-01T22:00:33.877Z,74.07
2022-12-01T22:03:09.577Z,75.75
2022-12-01T22:06:01.160Z,76.20
2022-12-01T22:08:34.237Z,73.07
2022-12-01T22:11:11.021Z,72.22
2022-12-01T22:13:55.111Z,73.10
2022-12-01T22:16:33.969Z,75.57
2022-12-01T22:19:22.018Z,80.38
2022-12-01T22:21:52.827Z,75.13
2022-12-01T22:24:34.333Z,66.20
2022-12-01T22:27:22.829Z,71.68
2022-12-01T22:29:52.119Z,70.95
2022-12-01T22:32:40.357Z,64.50
2022-12-01T22:35:10.037Z,68.82
2022-12-01T22:37:43.870Z,68.65
2022-12-01T22:40:28.283Z,62.20
2022-12-01T22:42:55.292Z,68.15
2022-12-01T22:45:26.875Z,81.32
2022-12-01T22:48:02.004Z,65.45
2022-12-01T22:50:32.901Z,71.80
2022-12-01T22:53:06.321Z,70.13
2022-12-01T22:55:32.825Z,73.07
2022-12-01T22:57:59.901Z,71.82
2022-12-01T23:00:27.141Z,76.68
2022-12-01T23:02:55.724Z,66.63
2022-12-01T23:05:26.984Z,69.65
2022-12-01T23:07:54.588Z,67.72
2022-12-01T23:10:28.405Z,63.75
2022-12-01T23:12:56.950Z,65.72
2022-12-01T23:15:34.275Z,66.88
2022-12-01T23:18:13.076Z,65.18
2022-12-01T23:20:41.119Z,69.03
2022-12-01T23:23:13.782Z,70.07
2022-12-01T23:25:40.442Z,62.60
2022-12-01T23:28:08.330Z,69.63
2022-12-01T23:30:36.755Z,66.05
2022-12-01T23:33:11.001Z,65.25
2022-12-01T23:35:51.932Z,71.22
2022-12-01T23:38:22.088Z,66.63
2022-12-01T23:40:51.260Z,67.93
2022-12-01T23:43:27.964Z,72.97
2022-12-01T23:46:03.867Z,68.55
2022-12-01T23:48:35.071Z,67.70
2022-12-01T23:51:02.016Z,67.57
2022-12-01T23:53:31.131Z,70.60
2022-12-01T23:56:05.109Z,68.40
2022-12-01T23:58:31.610Z,70.95
